sensor_id;sensor_type;location;lat;lon;timestamp;pressure;altitude;pressure_sealevel;temperature;humidity
77027;BME280;65956;52.986;17.490;2024-01-25T00:00:54;99444.77;;;4.94;100.00
77027;BME280;65956;52.986;17.490;2024-01-25T00:03:39;99455.37;;;4.95;100.00
77027;BME280;65956;52.986;17.490;2024-01-25T00:06:06;99453.35;;;4.94;100.00
77027;BME280;65956;52.986;17.490;2024-01-25T00:08:34;99451.59;;;4.93;100.00
77027;BME280;65956;52.986;17.490;2024-01-25T00:11:04;99460.63;;;4.91;100.00
77027;BME280;65956;52.986;17.490;2024-01-25T00:13:31;99468.32;;;4.89;100.00
77027;BME280;65956;52.986;17.490;2024-01-25T00:15:58;99476.41;;;4.91;100.00
77027;BME280;65956;52.986;17.490;2024-01-25T00:18:25;99484.37;;;4.92;100.00
77027;BME280;65956;52.986;17.490;2024-01-25T00:20:52;99491.85;;;4.91;100.00
77027;BME280;65956;52.986;17.490;2024-01-25T00:23:18;99481.92;;;4.91;100.00
77027;BME280;65956;52.986;17.490;2024-01-25T00:25:45;99475.80;;;4.90;100.00
77027;BME280;65956;52.986;17.490;2024-01-25T00:28:12;99486.63;;;4.88;100.00
77027;BME280;65956;52.986;17.490;2024-01-25T00:30:39;99465.09;;;4.87;100.00
77027;BME280;65956;52.986;17.490;2024-01-25T00:33:06;99473.47;;;4.85;100.00
77027;BME280;65956;52.986;17.490;2024-01-25T00:35:34;99496.47;;;4.84;100.00
77027;BME280;65956;52.986;17.490;2024-01-25T00:38:01;99485.71;;;4.82;100.00
77027;BME280;65956;52.986;17.490;2024-01-25T00:40:28;99476.02;;;4.80;100.00
77027;BME280;65956;52.986;17.490;2024-01-25T00:42:55;99488.10;;;4.78;100.00
77027;BME280;65956;52.986;17.490;2024-01-25T00:45:23;99470.11;;;4.74;100.00
77027;BME280;65956;52.986;17.490;2024-01-25T00:47:51;99489.15;;;4.72;100.00
77027;BME280;65956;52.986;17.490;2024-01-25T00:50:19;99477.36;;;4.71;100.00
77027;BME280;65956;52.986;17.490;2024-01-25T00:52:48;99482.70;;;4.70;100.00
77027;BME280;65956;52.986;17.490;2024-01-25T00:55:15;99470.73;;;4.70;100.00
77027;BME280;65956;52.986;17.490;2024-01-25T00:57:43;99470.17;;;4.68;100.00
77027;BME280;65956;52.986;17.490;2024-01-25T01:00:11;99462.91;;;4.64;100.00
77027;BME280;65956;52.986;17.490;2024-01-25T01:02:46;99476.94;;;4.67;100.00
77027;BME280;65956;52.986;17.490;2024-01-25T01:05:14;99465.00;;;4.69;100.00
77027;BME280;65956;52.986;17.490;2024-01-25T01:07:41;99458.73;;;4.67;100.00
77027;BME280;65956;52.986;17.490;2024-01-25T01:10:09;99470.93;;;4.64;100.00
77027;BME280;65956;52.986;17.490;2024-01-25T01:12:36;99460.80;;;4.65;100.00
77027;BME280;65956;52.986;17.490;2024-01-25T01:15:04;99468.86;;;4.66;100.00
77027;BME280;65956;52.986;17.490;2024-01-25T01:17:30;99461.80;;;4.67;100.00
77027;BME280;65956;52.986;17.490;2024-01-25T01:19:57;99467.00;;;4.67;100.00
77027;BME280;65956;52.986;17.490;2024-01-25T01:22:24;99471.80;;;4.67;100.00
77027;BME280;65956;52.986;17.490;2024-01-25T01:24:51;99468.87;;;4.63;100.00
77027;BME280;65956;52.986;17.490;2024-01-25T01:27:18;99476.87;;;4.59;100.00
77027;BME280;65956;52.986;17.490;2024-01-25T01:29:47;99466.63;;;4.56;100.00
77027;BME280;65956;52.986;17.490;2024-01-25T01:32:14;99470.79;;;4.55;100.00
77027;BME280;65956;52.986;17.490;2024-01-25T01:34:40;99478.84;;;4.55;100.00
77027;BME280;65956;52.986;17.490;2024-01-25T01:37:07;99478.08;;;4.60;100.00
77027;BME280;65956;52.986;17.490;2024-01-25T01:39:34;99493.88;;;4.64;100.00
77027;BME280;65956;52.986;17.490;2024-01-25T01:42:01;99497.48;;;4.66;100.00
77027;BME280;65956;52.986;17.490;2024-01-25T01:44:27;99498.25;;;4.71;100.00
77027;BME280;65956;52.986;17.490;2024-01-25T01:46:54;99489.69;;;4.76;100.00
77027;BME280;65956;52.986;17.490;2024-01-25T01:49:22;99482.46;;;4.79;100.00
77027;BME280;65956;52.986;17.490;2024-01-25T01:51:49;99487.52;;;4.79;100.00
77027;BME280;65956;52.986;17.490;2024-01-25T01:54:16;99501.33;;;4.80;100.00
77027;BME280;65956;52.986;17.490;2024-01-25T01:56:43;99504.08;;;4.85;99.82
77027;BME280;65956;52.986;17.490;2024-01-25T01:59:12;99491.74;;;4.87;99.74
77027;BME280;65956;52.986;17.490;2024-01-25T02:01:39;99510.04;;;4.87;99.74
77027;BME280;65956;52.986;17.490;2024-01-25T02:04:06;99507.79;;;4.88;99.34
77027;BME280;65956;52.986;17.490;2024-01-25T02:06:33;99501.39;;;4.88;99.08
77027;BME280;65956;52.986;17.490;2024-01-25T02:09:01;99502.02;;;4.88;98.99
77027;BME280;65956;52.986;17.490;2024-01-25T02:11:28;99492.70;;;4.87;98.72
77027;BME280;65956;52.986;17.490;2024-01-25T02:13:56;99492.02;;;4.83;98.94
77027;BME280;65956;52.986;17.490;2024-01-25T02:16:23;99486.05;;;4.81;99.02
77027;BME280;65956;52.986;17.490;2024-01-25T02:18:50;99492.77;;;4.75;99.52
77027;BME280;65956;52.986;17.490;2024-01-25T02:21:17;99481.31;;;4.72;99.53
77027;BME280;65956;52.986;17.490;2024-01-25T02:23:43;99491.97;;;4.69;99.75
77027;BME280;65956;52.986;17.490;2024-01-25T02:26:10;99484.20;;;4.68;99.77
77027;BME280;65956;52.986;17.490;2024-01-25T02:28:37;99474.06;;;4.69;99.74
77027;BME280;65956;52.986;17.490;2024-01-25T02:31:04;99479.20;;;4.69;99.69
77027;BME280;65956;52.986;17.490;2024-01-25T02:33:31;99486.55;;;4.69;99.93
77027;BME280;65956;52.986;17.490;2024-01-25T02:35:58;99482.49;;;4.72;99.78
77027;BME280;65956;52.986;17.490;2024-01-25T02:38:25;99492.34;;;4.74;99.54
77027;BME280;65956;52.986;17.490;2024-01-25T02:40:51;99483.86;;;4.78;99.30
77027;BME280;65956;52.986;17.490;2024-01-25T02:43:20;99496.34;;;4.79;99.32
77027;BME280;65956;52.986;17.490;2024-01-25T02:45:47;99471.77;;;4.80;99.17
77027;BME280;65956;52.986;17.490;2024-01-25T02:48:15;99473.02;;;4.80;99.30
77027;BME280;65956;52.986;17.490;2024-01-25T02:50:42;99479.44;;;4.81;99.32
77027;BME280;65956;52.986;17.490;2024-01-25T02:53:09;99486.27;;;4.80;99.41
77027;BME280;65956;52.986;17.490;2024-01-25T02:55:36;99486.79;;;4.82;99.19
77027;BME280;65956;52.986;17.490;2024-01-25T02:58:03;99482.63;;;4.82;99.18
77027;BME280;65956;52.986;17.490;2024-01-25T03:00:29;99483.05;;;4.83;99.03
77027;BME280;65956;52.986;17.490;2024-01-25T03:02:56;99488.95;;;4.82;99.06
77027;BME280;65956;52.986;17.490;2024-01-25T03:05:23;99487.48;;;4.84;99.15
77027;BME280;65956;52.986;17.490;2024-01-25T03:07:50;99494.25;;;4.83;99.30
77027;BME280;65956;52.986;17.490;2024-01-25T03:10:17;99490.33;;;4.81;99.52
77027;BME280;65956;52.986;17.490;2024-01-25T03:12:44;99494.56;;;4.77;99.99
77027;BME280;65956;52.986;17.490;2024-01-25T03:15:11;99504.39;;;4.76;99.99
77027;BME280;65956;52.986;17.490;2024-01-25T03:17:38;99500.98;;;4.76;100.00
77027;BME280;65956;52.986;17.490;2024-01-25T03:20:06;99497.89;;;4.75;100.00
77027;BME280;65956;52.986;17.490;2024-01-25T03:22:33;99507.35;;;4.72;100.00
77027;BME280;65956;52.986;17.490;2024-01-25T03:24:59;99507.23;;;4.71;100.00
77027;BME280;65956;52.986;17.490;2024-01-25T03:27:26;99503.86;;;4.68;100.00
77027;BME280;65956;52.986;17.490;2024-01-25T03:29:53;99511.27;;;4.66;100.00
77027;BME280;65956;52.986;17.490;2024-01-25T03:32:20;99515.77;;;4.63;100.00
77027;BME280;65956;52.986;17.490;2024-01-25T03:34:47;99519.66;;;4.61;100.00
77027;BME280;65956;52.986;17.490;2024-01-25T03:37:13;99518.85;;;4.60;100.00
77027;BME280;65956;52.986;17.490;2024-01-25T03:39:40;99518.55;;;4.58;100.00
77027;BME280;65956;52.986;17.490;2024-01-25T03:42:07;99520.64;;;4.56;100.00
77027;BME280;65956;52.986;17.490;2024-01-25T03:44:34;99524.06;;;4.54;100.00
77027;BME280;65956;52.986;17.490;2024-01-25T03:47:01;99518.16;;;4.52;100.00
77027;BME280;65956;52.986;17.490;2024-01-25T03:49:27;99516.30;;;4.50;100.00
77027;BME280;65956;52.986;17.490;2024-01-25T03:51:54;99527.14;;;4.49;100.00
77027;BME280;65956;52.986;17.490;2024-01-25T03:54:21;99522.33;;;4.52;100.00
77027;BME280;65956;52.986;17.490;2024-01-25T03:56:47;99533.90;;;4.51;100.00
77027;BME280;65956;52.986;17.490;2024-01-25T03:59:14;99526.36;;;4.52;100.00
77027;BME280;65956;52.986;17.490;2024-01-25T04:01:42;99533.92;;;4.52;100.00
77027;BME280;65956;52.986;17.490;2024-01-25T04:04:09;99516.23;;;4.50;100.00
77027;BME280;65956;52.986;17.490;2024-01-25T04:06:41;99529.52;;;4.49;100.00
77027;BME280;65956;52.986;17.490;2024-01-25T04:09:10;99531.16;;;4.49;100.00
77027;BME280;65956;52.986;17.490;2024-01-25T04:11:38;99527.51;;;4.48;100.00
77027;BME280;65956;52.986;17.490;2024-01-25T04:14:04;99528.21;;;4.46;100.00
77027;BME280;65956;52.986;17.490;2024-01-25T04:16:32;99539.66;;;4.44;100.00
77027;BME280;65956;52.986;17.490;2024-01-25T04:18:59;99530.74;;;4.43;100.00
77027;BME280;65956;52.986;17.490;2024-01-25T04:21:27;99529.00;;;4.40;100.00
77027;BME280;65956;52.986;17.490;2024-01-25T04:23:54;99541.91;;;4.40;100.00
77027;BME280;65956;52.986;17.490;2024-01-25T04:26:21;99537.41;;;4.39;100.00
77027;BME280;65956;52.986;17.490;2024-01-25T04:28:48;99533.73;;;4.37;100.00
77027;BME280;65956;52.986;17.490;2024-01-25T04:31:14;99534.59;;;4.35;100.00
77027;BME280;65956;52.986;17.490;2024-01-25T04:33:41;99543.66;;;4.30;100.00
77027;BME280;65956;52.986;17.490;2024-01-25T04:36:08;99535.30;;;4.26;100.00
77027;BME280;65956;52.986;17.490;2024-01-25T04:38:35;99552.39;;;4.24;100.00
77027;BME280;65956;52.986;17.490;2024-01-25T04:41:01;99545.81;;;4.20;100.00
77027;BME280;65956;52.986;17.490;2024-01-25T04:43:29;99551.64;;;4.17;100.00
77027;BME280;65956;52.986;17.490;2024-01-25T04:46:00;99542.23;;;4.16;100.00
77027;BME280;65956;52.986;17.490;2024-01-25T04:48:27;99563.34;;;4.15;100.00
77027;BME280;65956;52.986;17.490;2024-01-25T04:50:53;99547.47;;;4.15;100.00
77027;BME280;65956;52.986;17.490;2024-01-25T04:53:20;99550.95;;;4.15;100.00
77027;BME280;65956;52.986;17.490;2024-01-25T04:55:47;99560.80;;;4.15;100.00
77027;BME280;65956;52.986;17.490;2024-01-25T04:58:14;99564.56;;;4.15;100.00
77027;BME280;65956;52.986;17.490;2024-01-25T05:00:41;99559.84;;;4.15;100.00
77027;BME280;65956;52.986;17.490;2024-01-25T05:03:08;99566.94;;;4.15;100.00
77027;BME280;65956;52.986;17.490;2024-01-25T05:05:34;99579.41;;;4.16;100.00
77027;BME280;65956;52.986;17.490;2024-01-25T05:08:02;99576.52;;;4.16;100.00
77027;BME280;65956;52.986;17.490;2024-01-25T05:10:28;99568.85;;;4.19;100.00
77027;BME280;65956;52.986;17.490;2024-01-25T05:12:55;99561.83;;;4.18;100.00
77027;BME280;65956;52.986;17.490;2024-01-25T05:15:22;99572.06;;;4.17;100.00
77027;BME280;65956;52.986;17.490;2024-01-25T05:17:49;99588.23;;;4.18;100.00
77027;BME280;65956;52.986;17.490;2024-01-25T05:20:16;99590.02;;;4.20;100.00
77027;BME280;65956;52.986;17.490;2024-01-25T05:22:44;99601.63;;;4.21;100.00
77027;BME280;65956;52.986;17.490;2024-01-25T05:25:12;99587.27;;;4.23;100.00
77027;BME280;65956;52.986;17.490;2024-01-25T05:27:40;99591.61;;;4.24;100.00
77027;BME280;65956;52.986;17.490;2024-01-25T05:30:07;99585.29;;;4.23;100.00
77027;BME280;65956;52.986;17.490;2024-01-25T05:32:34;99593.11;;;4.23;100.00
77027;BME280;65956;52.986;17.490;2024-01-25T05:35:01;99571.67;;;4.26;100.00
77027;BME280;65956;52.986;17.490;2024-01-25T05:37:28;99578.23;;;4.26;100.00
77027;BME280;65956;52.986;17.490;2024-01-25T05:39:55;99587.09;;;4.27;100.00
77027;BME280;65956;52.986;17.490;2024-01-25T05:42:22;99594.37;;;4.28;100.00
77027;BME280;65956;52.986;17.490;2024-01-25T05:44:49;99592.44;;;4.29;100.00
77027;BME280;65956;52.986;17.490;2024-01-25T05:47:16;99590.81;;;4.30;100.00
77027;BME280;65956;52.986;17.490;2024-01-25T05:49:42;99576.66;;;4.29;100.00
77027;BME280;65956;52.986;17.490;2024-01-25T05:52:09;99595.42;;;4.29;100.00
77027;BME280;65956;52.986;17.490;2024-01-25T05:54:36;99584.83;;;4.31;100.00
77027;BME280;65956;52.986;17.490;2024-01-25T05:57:04;99593.80;;;4.33;100.00
77027;BME280;65956;52.986;17.490;2024-01-25T05:59:34;99602.43;;;4.34;100.00
77027;BME280;65956;52.986;17.490;2024-01-25T06:02:01;99600.89;;;4.33;100.00
77027;BME280;65956;52.986;17.490;2024-01-25T06:04:29;99597.70;;;4.34;100.00
77027;BME280;65956;52.986;17.490;2024-01-25T06:06:59;99607.02;;;4.35;100.00
77027;BME280;65956;52.986;17.490;2024-01-25T06:09:29;99603.44;;;4.34;100.00
77027;BME280;65956;52.986;17.490;2024-01-25T06:11:56;99618.59;;;4.34;100.00
77027;BME280;65956;52.986;17.490;2024-01-25T06:14:24;99616.45;;;4.34;100.00
77027;BME280;65956;52.986;17.490;2024-01-25T06:16:51;99616.86;;;4.34;100.00
77027;BME280;65956;52.986;17.490;2024-01-25T06:19:19;99634.52;;;4.35;100.00
77027;BME280;65956;52.986;17.490;2024-01-25T06:21:46;99632.23;;;4.35;100.00
77027;BME280;65956;52.986;17.490;2024-01-25T06:24:12;99656.27;;;4.35;100.00
77027;BME280;65956;52.986;17.490;2024-01-25T06:26:39;99652.00;;;4.34;100.00
77027;BME280;65956;52.986;17.490;2024-01-25T06:29:06;99668.33;;;4.35;100.00
77027;BME280;65956;52.986;17.490;2024-01-25T06:31:33;99665.89;;;4.35;100.00
77027;BME280;65956;52.986;17.490;2024-01-25T06:34:06;99665.23;;;4.37;100.00
77027;BME280;65956;52.986;17.490;2024-01-25T06:36:33;99677.92;;;4.39;100.00
77027;BME280;65956;52.986;17.490;2024-01-25T06:39:00;99687.55;;;4.40;100.00
77027;BME280;65956;52.986;17.490;2024-01-25T06:41:27;99677.90;;;4.38;100.00
77027;BME280;65956;52.986;17.490;2024-01-25T06:43:54;99673.48;;;4.38;100.00
77027;BME280;65956;52.986;17.490;2024-01-25T06:46:20;99676.80;;;4.38;100.00
77027;BME280;65956;52.986;17.490;2024-01-25T06:48:50;99685.44;;;4.37;100.00
77027;BME280;65956;52.986;17.490;2024-01-25T06:51:17;99686.77;;;4.37;100.00
77027;BME280;65956;52.986;17.490;2024-01-25T06:53:44;99682.01;;;4.36;100.00
77027;BME280;65956;52.986;17.490;2024-01-25T06:56:11;99686.75;;;4.34;100.00
77027;BME280;65956;52.986;17.490;2024-01-25T06:58:38;99688.52;;;4.33;100.00
77027;BME280;65956;52.986;17.490;2024-01-25T07:01:04;99687.88;;;4.33;100.00
77027;BME280;65956;52.986;17.490;2024-01-25T07:03:31;99690.66;;;4.33;100.00
77027;BME280;65956;52.986;17.490;2024-01-25T07:05:58;99707.09;;;4.35;100.00
77027;BME280;65956;52.986;17.490;2024-01-25T07:08:25;99718.35;;;4.37;100.00
77027;BME280;65956;52.986;17.490;2024-01-25T07:10:52;99717.47;;;4.39;100.00
77027;BME280;65956;52.986;17.490;2024-01-25T07:13:19;99726.32;;;4.40;100.00
77027;BME280;65956;52.986;17.490;2024-01-25T07:15:47;99708.95;;;4.41;100.00
77027;BME280;65956;52.986;17.490;2024-01-25T07:18:15;99731.65;;;4.44;100.00
77027;BME280;65956;52.986;17.490;2024-01-25T07:20:42;99723.67;;;4.46;100.00
77027;BME280;65956;52.986;17.490;2024-01-25T07:23:09;99731.61;;;4.47;100.00
77027;BME280;65956;52.986;17.490;2024-01-25T07:25:36;99727.16;;;4.49;100.00
77027;BME280;65956;52.986;17.490;2024-01-25T07:28:03;99737.48;;;4.51;100.00
77027;BME280;65956;52.986;17.490;2024-01-25T07:30:30;99755.63;;;4.51;100.00
77027;BME280;65956;52.986;17.490;2024-01-25T07:32:56;99755.83;;;4.53;100.00
77027;BME280;65956;52.986;17.490;2024-01-25T07:35:23;99758.86;;;4.54;100.00
77027;BME280;65956;52.986;17.490;2024-01-25T07:37:52;99754.11;;;4.56;100.00
77027;BME280;65956;52.986;17.490;2024-01-25T07:40:19;99764.86;;;4.57;100.00
77027;BME280;65956;52.986;17.490;2024-01-25T07:42:46;99765.20;;;4.58;100.00
77027;BME280;65956;52.986;17.490;2024-01-25T07:45:13;99776.45;;;4.57;100.00
77027;BME280;65956;52.986;17.490;2024-01-25T07:47:41;99787.00;;;4.57;100.00
77027;BME280;65956;52.986;17.490;2024-01-25T07:50:09;99779.88;;;4.56;100.00
77027;BME280;65956;52.986;17.490;2024-01-25T07:52:36;99778.05;;;4.53;100.00
77027;BME280;65956;52.986;17.490;2024-01-25T07:55:03;99795.89;;;4.51;100.00
77027;BME280;65956;52.986;17.490;2024-01-25T07:57:29;99797.13;;;4.48;100.00
77027;BME280;65956;52.986;17.490;2024-01-25T07:59:56;99808.70;;;4.45;100.00
77027;BME280;65956;52.986;17.490;2024-01-25T08:02:23;99795.92;;;4.45;100.00
77027;BME280;65956;52.986;17.490;2024-01-25T08:04:50;99806.19;;;4.43;100.00
77027;BME280;65956;52.986;17.490;2024-01-25T08:07:18;99813.08;;;4.42;100.00
77027;BME280;65956;52.986;17.490;2024-01-25T08:09:45;99819.89;;;4.41;100.00
77027;BME280;65956;52.986;17.490;2024-01-25T08:49:49;99872.16;;;4.45;100.00
77027;BME280;65956;52.986;17.490;2024-01-25T08:52:16;99881.60;;;4.45;100.00
77027;BME280;65956;52.986;17.490;2024-01-25T08:54:42;99880.64;;;4.44;100.00
77027;BME280;65956;52.986;17.490;2024-01-25T08:57:08;99887.16;;;4.44;100.00
77027;BME280;65956;52.986;17.490;2024-01-25T08:59:35;99883.51;;;4.45;100.00
77027;BME280;65956;52.986;17.490;2024-01-25T09:02:04;99896.85;;;4.46;100.00
77027;BME280;65956;52.986;17.490;2024-01-25T09:04:32;99908.27;;;4.46;100.00
77027;BME280;65956;52.986;17.490;2024-01-25T09:06:59;99908.38;;;4.44;100.00
77027;BME280;65956;52.986;17.490;2024-01-25T09:09:25;99912.01;;;4.45;100.00
77027;BME280;65956;52.986;17.490;2024-01-25T09:11:51;99908.70;;;4.45;100.00
77027;BME280;65956;52.986;17.490;2024-01-25T09:14:17;99923.79;;;4.48;100.00
77027;BME280;65956;52.986;17.490;2024-01-25T09:16:44;99919.72;;;4.49;100.00
77027;BME280;65956;52.986;17.490;2024-01-25T09:19:11;99931.60;;;4.52;100.00
77027;BME280;65956;52.986;17.490;2024-01-25T09:21:39;99928.66;;;4.54;100.00
77027;BME280;65956;52.986;17.490;2024-01-25T09:24:06;99936.58;;;4.58;100.00
77027;BME280;65956;52.986;17.490;2024-01-25T09:26:33;99940.33;;;4.61;100.00
77027;BME280;65956;52.986;17.490;2024-01-25T09:28:59;99945.27;;;4.65;100.00
77027;BME280;65956;52.986;17.490;2024-01-25T09:31:25;99957.87;;;4.67;100.00
77027;BME280;65956;52.986;17.490;2024-01-25T09:33:51;99965.25;;;4.66;100.00
77027;BME280;65956;52.986;17.490;2024-01-25T09:36:17;99962.41;;;4.64;100.00
77027;BME280;65956;52.986;17.490;2024-01-25T09:38:43;99975.43;;;4.62;100.00
77027;BME280;65956;52.986;17.490;2024-01-25T09:41:10;99960.58;;;4.61;100.00
77027;BME280;65956;52.986;17.490;2024-01-25T09:43:36;99963.51;;;4.59;100.00
77027;BME280;65956;52.986;17.490;2024-01-25T09:46:04;99966.20;;;4.57;100.00
77027;BME280;65956;52.986;17.490;2024-01-25T09:48:31;99959.96;;;4.57;100.00
77027;BME280;65956;52.986;17.490;2024-01-25T09:50:59;99969.15;;;4.58;100.00
77027;BME280;65956;52.986;17.490;2024-01-25T09:53:25;99976.39;;;4.62;100.00
77027;BME280;65956;52.986;17.490;2024-01-25T09:56:05;99974.81;;;4.64;100.00
77027;BME280;65956;52.986;17.490;2024-01-25T09:58:41;99977.50;;;4.65;100.00
77027;BME280;65956;52.986;17.490;2024-01-25T10:01:09;99986.70;;;4.64;100.00
77027;BME280;65956;52.986;17.490;2024-01-25T10:03:36;99986.76;;;4.68;100.00
77027;BME280;65956;52.986;17.490;2024-01-25T10:06:03;99994.55;;;4.67;100.00
77027;BME280;65956;52.986;17.490;2024-01-25T10:08:29;99981.80;;;4.70;100.00
77027;BME280;65956;52.986;17.490;2024-01-25T10:10:55;99981.39;;;4.74;100.00
77027;BME280;65956;52.986;17.490;2024-01-25T10:13:22;99977.47;;;4.80;100.00
77027;BME280;65956;52.986;17.490;2024-01-25T10:15:48;99979.79;;;4.87;100.00
77027;BME280;65956;52.986;17.490;2024-01-25T10:18:14;99988.96;;;4.88;100.00
77027;BME280;65956;52.986;17.490;2024-01-25T10:20:44;99992.73;;;4.88;100.00
77027;BME280;65956;52.986;17.490;2024-01-25T10:23:10;99991.75;;;4.89;100.00
77027;BME280;65956;52.986;17.490;2024-01-25T10:25:37;99991.42;;;4.89;100.00
77027;BME280;65956;52.986;17.490;2024-01-25T10:28:07;100001.23;;;4.89;100.00
77027;BME280;65956;52.986;17.490;2024-01-25T10:30:35;99999.70;;;4.86;100.00
77027;BME280;65956;52.986;17.490;2024-01-25T10:33:02;100003.72;;;4.86;100.00
77027;BME280;65956;52.986;17.490;2024-01-25T10:35:31;100019.86;;;4.85;100.00
77027;BME280;65956;52.986;17.490;2024-01-25T10:37:58;100020.88;;;4.80;100.00
77027;BME280;65956;52.986;17.490;2024-01-25T10:40:25;100021.85;;;4.79;100.00
77027;BME280;65956;52.986;17.490;2024-01-25T10:42:51;100026.85;;;4.80;100.00
77027;BME280;65956;52.986;17.490;2024-01-25T10:45:17;100028.38;;;4.81;100.00
77027;BME280;65956;52.986;17.490;2024-01-25T10:47:48;100023.95;;;4.81;100.00
77027;BME280;65956;52.986;17.490;2024-01-25T10:50:14;100041.24;;;4.83;100.00
77027;BME280;65956;52.986;17.490;2024-01-25T10:52:41;100038.00;;;4.83;100.00
77027;BME280;65956;52.986;17.490;2024-01-25T10:55:08;100037.75;;;4.85;100.00
77027;BME280;65956;52.986;17.490;2024-01-25T10:57:39;100047.80;;;4.86;100.00
77027;BME280;65956;52.986;17.490;2024-01-25T11:00:13;100050.66;;;4.89;100.00
77027;BME280;65956;52.986;17.490;2024-01-25T11:02:41;100038.54;;;4.89;100.00
77027;BME280;65956;52.986;17.490;2024-01-25T11:05:15;100040.66;;;4.89;100.00
77027;BME280;65956;52.986;17.490;2024-01-25T11:07:47;100050.25;;;4.90;100.00
77027;BME280;65956;52.986;17.490;2024-01-25T11:10:21;100052.14;;;4.93;100.00
77027;BME280;65956;52.986;17.490;2024-01-25T11:12:55;100047.02;;;4.95;100.00
77027;BME280;65956;52.986;17.490;2024-01-25T11:15:23;100044.98;;;4.97;100.00
77027;BME280;65956;52.986;17.490;2024-01-25T11:17:51;100050.50;;;4.97;100.00
77027;BME280;65956;52.986;17.490;2024-01-25T11:20:20;100057.80;;;4.98;100.00
77027;BME280;65956;52.986;17.490;2024-01-25T11:22:47;100060.96;;;5.01;100.00
77027;BME280;65956;52.986;17.490;2024-01-25T11:25:19;100044.23;;;5.03;100.00
77027;BME280;65956;52.986;17.490;2024-01-25T11:27:48;100057.02;;;5.03;100.00
77027;BME280;65956;52.986;17.490;2024-01-25T11:30:18;100072.08;;;5.06;100.00
77027;BME280;65956;52.986;17.490;2024-01-25T11:32:48;100075.15;;;5.07;100.00
77027;BME280;65956;52.986;17.490;2024-01-25T11:35:15;100071.98;;;5.12;100.00
77027;BME280;65956;52.986;17.490;2024-01-25T11:37:45;100078.65;;;5.08;100.00
77027;BME280;65956;52.986;17.490;2024-01-25T11:40:13;100090.89;;;5.11;100.00
77027;BME280;65956;52.986;17.490;2024-01-25T11:42:42;100088.06;;;5.13;100.00
77027;BME280;65956;52.986;17.490;2024-01-25T11:45:12;100081.00;;;5.10;100.00
77027;BME280;65956;52.986;17.490;2024-01-25T11:47:41;100092.17;;;5.07;100.00
77027;BME280;65956;52.986;17.490;2024-01-25T11:50:09;100094.17;;;5.03;100.00
77027;BME280;65956;52.986;17.490;2024-01-25T11:52:35;100097.98;;;5.02;100.00
77027;BME280;65956;52.986;17.490;2024-01-25T11:55:06;100110.34;;;5.01;100.00
77027;BME280;65956;52.986;17.490;2024-01-25T11:57:35;100121.16;;;4.99;100.00
77027;BME280;65956;52.986;17.490;2024-01-25T12:00:07;100126.75;;;4.96;100.00
77027;BME280;65956;52.986;17.490;2024-01-25T12:02:34;100133.54;;;4.90;100.00
77027;BME280;65956;52.986;17.490;2024-01-25T12:05:04;100142.38;;;4.88;100.00
77027;BME280;65956;52.986;17.490;2024-01-25T12:07:31;100140.58;;;4.84;100.00
77027;BME280;65956;52.986;17.490;2024-01-25T12:10:03;100165.08;;;4.83;100.00
77027;BME280;65956;52.986;17.490;2024-01-25T12:12:30;100163.16;;;4.85;100.00
77027;BME280;65956;52.986;17.490;2024-01-25T12:15:01;100156.20;;;4.84;100.00
77027;BME280;65956;52.986;17.490;2024-01-25T12:17:30;100157.65;;;4.81;100.00
77027;BME280;65956;52.986;17.490;2024-01-25T12:19:57;100166.67;;;4.80;100.00
77027;BME280;65956;52.986;17.490;2024-01-25T12:22:26;100167.43;;;4.79;100.00
77027;BME280;65956;52.986;17.490;2024-01-25T12:24:54;100162.38;;;4.75;100.00
77027;BME280;65956;52.986;17.490;2024-01-25T12:27:25;100164.59;;;4.75;100.00
77027;BME280;65956;52.986;17.490;2024-01-25T12:29:52;100167.55;;;4.74;100.00
77027;BME280;65956;52.986;17.490;2024-01-25T12:32:22;100180.29;;;4.71;100.00
77027;BME280;65956;52.986;17.490;2024-01-25T12:34:59;100182.07;;;4.70;100.00
77027;BME280;65956;52.986;17.490;2024-01-25T12:37:27;100187.73;;;4.69;100.00
77027;BME280;65956;52.986;17.490;2024-01-25T12:39:54;100192.04;;;4.69;100.00
77027;BME280;65956;52.986;17.490;2024-01-25T12:42:21;100200.34;;;4.69;100.00
77027;BME280;65956;52.986;17.490;2024-01-25T12:44:48;100201.27;;;4.71;100.00
77027;BME280;65956;52.986;17.490;2024-01-25T12:47:14;100200.42;;;4.72;100.00
77027;BME280;65956;52.986;17.490;2024-01-25T12:49:41;100204.42;;;4.71;100.00
77027;BME280;65956;52.986;17.490;2024-01-25T12:52:12;100211.77;;;4.71;100.00
77027;BME280;65956;52.986;17.490;2024-01-25T12:54:39;100211.16;;;4.70;100.00
77027;BME280;65956;52.986;17.490;2024-01-25T12:57:05;100224.31;;;4.69;100.00
77027;BME280;65956;52.986;17.490;2024-01-25T12:59:36;100225.36;;;4.68;100.00
77027;BME280;65956;52.986;17.490;2024-01-25T13:02:04;100228.20;;;4.68;100.00
77027;BME280;65956;52.986;17.490;2024-01-25T13:04:31;100227.67;;;4.67;100.00
77027;BME280;65956;52.986;17.490;2024-01-25T13:06:57;100220.77;;;4.64;100.00
77027;BME280;65956;52.986;17.490;2024-01-25T13:09:23;100236.48;;;4.66;100.00
77027;BME280;65956;52.986;17.490;2024-01-25T13:11:50;100228.34;;;4.68;100.00
77027;BME280;65956;52.986;17.490;2024-01-25T13:14:19;100237.15;;;4.71;100.00
77027;BME280;65956;52.986;17.490;2024-01-25T13:16:45;100243.73;;;4.72;100.00
77027;BME280;65956;52.986;17.490;2024-01-25T13:19:12;100248.60;;;4.69;100.00
77027;BME280;65956;52.986;17.490;2024-01-25T13:21:38;100248.50;;;4.67;100.00
77027;BME280;65956;52.986;17.490;2024-01-25T13:24:05;100247.22;;;4.65;100.00
77027;BME280;65956;52.986;17.490;2024-01-25T13:26:31;100246.23;;;4.57;100.00